Vue régionale

METAR et TAF

Jeudi 20 juin 2019 à 13h15

Visibilités horizontales observées à différents aéroports. Les observations (METAR) et prévisions aéronautiques (TAF) complètes sont disponibles en cliquant sur l’icône correspondante.

  • Luxemburg (ELLX)

    Taf: TAF ELLX 200500Z 2006/2112 23010KT 9999 SCT015 BKN025 TEMPO 2007/2020 SHRA BKN020TCU PROB40 TEMPO 2009/2018 26015G25KT 3000 TSRA BKN020CB BECMG 2021/2023 30008KT CAVOK=

    Metar: METAR ELLX 201050Z 20011KT 170V230 9999 SCT022CB 20/14 Q1013 TEMPO 4000 TSRA SCT020CB=

  • Spangdahlem (ETAD)

    Taf: TAF AMD ETAD 201020Z 2010/2110 24006KT 9999 BKN015 QNH2987INS BECMG 2011/2012 24010G15KT 8000 -SHRA BKN010 OVC015 QNH2988INS BECMG 2016/2017 32005KT 9999 NSW FEW010 BKN020 QNH2994INS BECMG 2104/2105 27003KT 9999 FEW035 QNH3004INS TX20/2013Z TN11/2104Z=

    Metar: nil

  • Metz/Nancy (LFJL)

    Taf: TAF AMD LFJL 200854Z 2008/2106 18010KT CAVOK TEMPO 2010/2020 4000 SHRA SCT040TCU PROB40 TEMPO 2012/2016 27015G25KT 1500 TSRA SCT040CB=

    Metar: nil

  • Saarbrücken/Intl (EDDR)

    Taf: TAF EDDR 200500Z 2006/2106 24007KT 9999 FEW040 PROB40 TEMPO 2010/2018 26015G30KT TSRA BKN035CB TEMPO 2102/2106 4000 BR BKN010=

    Metar: nil

  • Hahn (EDFH)

    Taf: TAF EDFH 200500Z 2006/2106 25008KT 9999 FEW040 PROB40 TEMPO 2010/2019 28015G30KT TSRA BKN030CB BECMG 2019/2021 29003KT TEMPO 2102/2106 3500 BR BKN008=

    Metar: nil

  • Ramstein (ETAR)

    Taf: TAF ETAR 201008Z 2010/2116 24012KT 9000 -SHRA BKN025 BKN055 QNH2990INS TEMPO 2011/2018 26010G20KT 8000 -TSRA BKN020CB BECMG 2017/2018 VRB06KT 9000 -SHRA BKN040 QNH2994INS BECMG 2100/2101 VRB06KT 9999 NSW SCT040 BKN075 QNH3003INS TX25/2014Z TN11/2104Z=

    Metar: nil

  • Nancy/Ochey (LFSO)

    Taf: TAF LFSO 200800Z 2009/2109 24010KT CAVOK TEMPO 2011/2021 28010G20KT 4000 SHRA BKN025CB PROB30 TEMPO 2018/2021 3000 TSRA BKN020CB BECMG 2021/2023 VRB02KT=

    Metar: nil

  • Liège Bierset (EBLG)

    Taf: TAF EBLG 200510Z 2006/2112 22006KT 4000 BR SCT006 BKN009 BECMG 2006/2008 NSW BKN018 PROB40 TEMPO 2007/2011 4000 SHRA BKN018CB=

    Metar: nil

  • Saint-Dizier (LFSI)

    Taf: TAF LFSI 200800Z 2009/2109 23010KT 9999 BKN020 TEMPO 2009/2022 VRB10G20KT 4000 SHRA BKN020TCU BKN100 TEMPO 2011/2020 VRB10G25KT 3000 TSRA BKN020CB BKN100 TEMPO 2014/2018 BKN010 BECMG 2022/2024 VRB03KT=

    Metar: nil

  • Maastricht/Zuid Limburg (EHBK)

    Taf: TAF AMD EHBK 201027Z 2010/2112 24010KT 9999 BKN020 TEMPO 2010/2019 6000 SHRA -RA SCT015CB BKN020 PROB40 TEMPO 2011/2017 3000 TSRA SCT015CB BKN020 BECMG 2016/2019 30005KT=

    Metar: nil

  • Köln/Köln-Bonn (EDDK)

    Taf: TAF EDDK 200500Z 2006/2112 26009KT 9999 SCT030 PROB30 TEMPO 2006/2008 BKN012 TEMPO 2012/2019 SHRA BKN030CB PROB30 TEMPO 2014/2017 28015G25KT TSRA BECMG 2018/2021 VRB03KT BECMG 2106/2108 27005KT=

    Metar: METAR EDDK 201050Z VRB06KT 9999 SCT038 23/13 Q1012 NOSIG=

  • Charleroi (EBCI)

    Taf: TAF EBCI 200510Z 2006/2112 22006KT 7000 SCT005 BKN009 BECMG 2006/2008 BKN018 PROB40 TEMPO 2007/2011 4000 SHRA BKN018CB=

    Metar: nil

  • Wiesbaden (ETOU)

    Taf: TAF AMD ETOU 191606Z 1916/2017 20009KT 9999 SCT120 QNH2981INS TEMPO 1916/1919 23012G20KT BECMG 1918/1919 25009KT 9999 FEW035 SCT100 QNH2982INS TEMPO 1920/2001 VRB10G15KT 8000 -TSRA BKN060CB BECMG 2008/2009 24012G20KT 9999 SCT020 BKN035 QNH2991INS BECMG 2011/2012 24010G15KT 8000 -SHRA SCT020 BKN035 QNH2993INS TEMPO 2012/2017 8000 -TSRA BKN020CB TX30/1916Z TN18/2003Z LAST NO AMDS AFT 1918=

    Metar: nil

  • Karlsruhe/Baden-Baden (EDSB)

    Taf: TAF EDSB 200500Z 2006/2106 22007KT 9999 FEW045 PROB40 TEMPO 2011/2019 22015G30KT TSRA BKN040CB BECMG 2019/2022 VRB02KT=

    Metar: nil

  • Chalons/Vatry (LFOK)

    Taf: TAF LFOK 200500Z 2006/2106 21007KT 9999 SCT040 PROB30 TEMPO 2006/2008 BKN012 BECMG 2008/2010 29013KT TEMPO 2010/2020 4000 SHRA BKN030TCU BECMG 2020/2022 VRB02KT=

    Metar: nil

  • Brüssel (EBBR)

    Taf: TAF EBBR 200510Z 2006/2112 22007KT 8000 SCT009 BKN012 BECMG 2006/2008 BKN018 PROB30 TEMPO 2007/2011 4000 SHRA BKN018CB=

    Metar: METAR EBBR 201050Z 25006KT 220V280 9999 SCT028 BKN034 19/13 Q1013 NOSIG=

  • Düsseldorf (EDDL)

    Taf: TAF EDDL 200500Z 2006/2112 24009KT 9999 SCT025 TEMPO 2006/2009 BKN013 PROB40 TEMPO 2013/2016 27015G25KT SHRA BKN020CB BECMG 2017/2020 30004KT BECMG 2104/2106 24006KT=

    Metar: nil

  • Luxeuil (LFSX)

    Taf: TAF LFSX 200800Z 2009/2109 27005KT 9999 BKN040 PROB40 TEMPO 2010/2020 4000 SHRA SCT030TCU PROB30 TEMPO 2010/2020 2000 TSRA SCT030CB=

    Metar: nil

  • Eindhoven (EHEH)

    Taf: TAF EHEH 200532Z 2006/2112 22007KT 3500 BR FEW008 SCT012 BKN050 BECMG 2006/2009 FEW012 BKN015 BECMG 2009/2011 SCT020 PROB40 TEMPO 2010/2017 28012G22KT FEW020CB BKN025 BECMG 2011/2013 27010KT BECMG 2012/2014 28010KT BECMG 2022/2024 24003KT PROB40 TEMPO 2104/2108 SCT012=

    Metar: nil

  • Niederrhein (EDLV)

    Taf: TAF EDLV 200500Z 2006/2106 25010KT 9999 BKN012 TEMPO 2006/2008 4000 BR BKN008 BECMG 2008/2010 SCT025 PROB30 TEMPO 2012/2015 26015G25KT SHRA BKN020CB BECMG 2018/2020 VRB03KT=

    Metar: nil

  • Dortmund/Wickede (EDLW)

    Taf: TAF EDLW 200500Z 2006/2106 25009KT 9999 SCT030 TEMPO 2006/2008 BKN010 PROB30 TEMPO 2013/2015 26015G25KT SHRA BKN025CB BECMG 2017/2019 28004KT BECMG 2102/2104 21005KT=

    Metar: nil

  • Stuttgart/Echterdingen (EDDS)

    Taf: TAF EDDS 200500Z 2006/2106 19004KT 9999 SCT035 BECMG 2009/2012 25006KT PROB40 TEMPO 2010/2021 27020G35KT 4000 TSRA BKN035CB BECMG 2021/2023 VRB03KT=

    Metar: METAR EDDS 201050Z VRB05KT 9999 FEW025CB 23/17 Q1014 NOSIG=

  • Basel-Mühlhausen (LFSB)

    Taf: TAF AMD LFSB 200636Z 2006/2106 26005KT CAVOK BECMG 2008/2011 FEW050CB TEMPO 2011/2022 4000 SHRA PROB40 TEMPO 2011/2018 2000 TSRA SCT040CB BECMG 2022/2024 BKN050=

    Metar: METAR LFSB 201100Z 24004KT 190V270 9999 -SHRA FEW030CB SCT038 BKN066 18/16 Q1016 TEMPO 4000 SHRA=

  • Lille (LFQQ)

    Taf: TAF LFQQ 200500Z 2006/2112 21007KT 9999 BKN020 TEMPO 2006/2009 4000 RA BKN011 BECMG 2009/2011 27012KT PROB30 2100/2106 BKN005=

    Metar: nil

  • Paris/Charles de Gaulle (LFPG)

    Taf: TAF LFPG 200500Z 2006/2112 28005KT 9999 BKN040 TX21/2016Z TN12/2104Z TEMPO 2006/2008 2000 RA BKN004 TEMPO 2008/2010 BKN010 PROB30 TEMPO 2011/2014 BKN020 FEW025TCU BECMG 2022/2024 VRB03KT CAVOK PROB30 TEMPO 2106/2107 BKN006=

    Metar: nil

  • Paderborn/Lippstadt (EDLP)

    Taf: TAF EDLP 200500Z 2006/2106 26009KT 9999 SCT025 PROB30 TEMPO 2015/2018 27015G25KT SHRA BKN025CB BECMG 2017/2019 25004KT=

    Metar: nil

  • Paris/Le Bourget (LFPB)

    Taf: TAF LFPB 200500Z 2006/2106 28005KT 9999 BKN040 TEMPO 2006/2008 2000 RA BKN006 TEMPO 2008/2010 BKN012 PROB30 TEMPO 2011/2014 FEW025TCU BECMG 2022/2024 VRB03KT CAVOK=

    Metar: METAR LFPB 201100Z AUTO 25007KT 200V310 9999 SCT031 BKN038 BKN047 18/11 Q1015 TEMPO FEW025TCU=

  • Rotterdam (EHRD)

    Taf: TAF AMD EHRD 200847Z 2008/2112 21012KT 9999 BKN018 TEMPO 2008/2013 5000 -SHRA -RA BKN012 SCT015TCU BECMG 2011/2013 27012KT SCT022 BECMG 2017/2020 22006KT PROB30 TEMPO 2102/2108 7000 -SHRA BKN012 FEW017TCU BECMG 2108/2111 28008KT=

    Metar: nil

  • Zürich/Kloten (LSZH)

    Taf: TAF LSZH 200825Z 2009/2115 VRB03KT 9999 FEW050TCU BKN085 TX23/2014Z TN14/2104Z TX23/2114Z TEMPO 2011/2020 26010KT SHRA SCT050TCU PROB30 TEMPO 2013/2020 27015G25KT 4500 TSRA SCT030CB TEMPO 2022/2104 CAVOK TEMPO 2108/2115 SHRA SCT040TCU=

    Metar: METAR LSZH 201050Z 18004KT 140V210 9999 FEW030 FEW040CB BKN100 19/15 Q1016 TEMPO TSRA=

  • Oostende/Intl (EBOS)

    Taf: TAF EBOS 200510Z 2006/2112 23006KT 8000 SCT011 PROB30 TEMPO 2006/2009 4000 SHRA BKN018CB=

    Metar: nil

  • Paris/Orly (LFPO)

    Taf: TAF LFPO 200500Z 2006/2112 30008KT 9999 SCT025 TEMPO 2006/2008 2500 -RA BR SCT007 BKN013TCU PROB30 2006/2008 BKN004 PROB30 TEMPO 2011/2018 31010G20KT -SHRA SCT030TCU BECMG 2018/2020 CAVOK=

    Metar: nil

  • Beauvais (LFOB)

    Taf: TAF LFOB 200500Z 2006/2106 28008KT 9999 BKN012 TEMPO 2006/2009 4000 RA OVC007 BECMG 2009/2011 BKN025 PROB30 TEMPO 2014/2017 4000 SHRA PROB30 2102/2106 BKN005=

    Metar: nil

  • Münster/Intl (EDDG)

    Taf: TAF EDDG 200500Z 2006/2106 22006KT 9999 BKN012 BECMG 2007/2010 24011KT SCT020 PROB40 TEMPO 2013/2017 26015G25KT SHRA BKN020CB BECMG 2017/2019 28004KT PROB30 TEMPO 2103/2105 4000 BR=

    Metar: METAR EDDG 201050Z 24010KT 9999 FEW025 22/14 Q1011 NOSIG=

  • Illesheim (ETIK)

    Taf: TAF AMD ETIK 200319Z 2003/2104 27009KT 8000 -SHRA SCT060 QNH2986INS BECMG 2016/2017 26009KT 9999 NSW SCT030 QNH2993INS TX24/2010Z TN14/2022Z LAST NO AMDS AFT 2003 NEXT 2022=

    Metar: nil

  • Duebendorf (LSMD)

    Taf: TAF LSMD 200925Z 2010/2116 32005KT 9999 FEW050TCU SCT085 TEMPO 2010/2023 SHRA BKN050 PROB30 TEMPO 2012/2018 26012G25KT 4000 TSRA SCT050CB TEMPO 2023/2108 CAVOK TEMPO 2108/2116 SHRA BKN050 PROB30 TEMPO 2112/2116 4000 TSRA SCT050CB=

    Metar: nil

  • Villacoublay (LFPV)

    Taf: TAF LFPV 200800Z 2009/2109 30010KT 9999 BKN010 OVC090 BECMG 2009/2011 BKN020 TEMPO 2009/2018 SHRA SCT030TCU=

    Metar: nil

  • Payerne (LSMP)

    Taf: TAF LSMP 200925Z 2010/2116 VRB03KT 9999 FEW045 SCT070 TEMPO 2010/2014 SHRA TEMPO 2107/2112 SHRA=

    Metar: nil

  • Amsterdam/Schipol (EHAM)

    Taf: TAF EHAM 200446Z 2006/2112 24006KT 5000 BR BKN008 PROB30 TEMPO 2006/2012 4500 SHRA RA SCT007 SCT025CB BECMG 2007/2010 21010KT 9999 NSW SCT017 BECMG 2010/2013 27014KT BECMG 2017/2020 22006KT PROB30 TEMPO 2102/2108 7000 -SHRA BKN012 FEW017TCU BECMG 2108/2111 28008KT=

    Metar: METAR EHAM 201055Z 23018KT 200V260 9999 FEW010 BKN021 18/15 Q1010 BECMG 29013KT=

  • Emmen (LSME)

    Taf: TAF LSME 200925Z 2010/2116 VRB05KT 9999 FEW050TCU SCT085 TEMPO 2010/2023 SHRA BKN050 PROB30 TEMPO 2013/2021 26012G25KT 4000 TSRA SCT050CB TEMPO 2023/2108 CAVOK TEMPO 2108/2116 SHRA BKN050 PROB30 TEMPO 2110/2116 4000 TSRA SCT050CB=

    Metar: nil

  • Friedrichshafen (EDNY)

    Taf: TAF EDNY 200500Z 2006/2106 VRB03KT 9999 FEW040 BECMG 2007/2009 23005KT PROB40 TEMPO 2010/2017 30020G30KT TSRA BKN020CB BECMG 2018/2020 VRB03KT=

    Metar: nil

  • Alpnach (LSMA)

    Taf: TAF LSMA 200925Z 2010/2116 06005KT 9999 SHRA SCT050TCU BKN080 PROB30 TEMPO 2013/2021 23012G25KT 4000 TSRA SCT050CB PROB40 TEMPO 2023/2106 CAVOK PROB30 TEMPO 2109/2116 23012G25KT 4000 TSRA SCT050CB=

    Metar: nil

  • Meiringen (LSMM)

    Taf: TAF LSMM 200925Z 2010/2116 26008KT 9999 SHRA SCT050TCU BKN080 PROB30 TEMPO 2012/2020 25012G25KT 4000 TSRA SCT050CB PROB40 TEMPO 2023/2106 CAVOK PROB30 TEMPO 2109/2116 25012G25KT 4000 TSRA SCT050CB=

    Metar: nil

  • Nürnberg (EDDN)

    Taf: TAF EDDN 200500Z 2006/2106 26007KT 9999 FEW020 PROB40 TEMPO 2013/2019 28020G35KT TSRA BKN020CB BECMG 2019/2021 VRB03KT=

    Metar: METAR EDDN 201050Z 29006KT 250V010 9999 SCT033 23/15 Q1014 NOSIG=

  • Rouen (LFOP)

    Taf: TAF LFOP 200500Z 2006/2106 27010KT 9999 BKN012 TEMPO 2006/2008 4000 RA BKN007 BECMG 2008/2010 BKN025 PROB30 TEMPO 2014/2018 4000 SHRA PROB40 2101/2106 OVC004=

    Metar: nil

  • Evreux (LFOE)

    Taf: TAF LFOE 200800Z 2009/2109 29010KT 9999 BKN025 PROB40 TEMPO 2015/2018 4000 -SHRA BKN030TCU BKN045 PROB40 TEMPO 2104/2107 4000 BR BKN004=

    Metar: nil

  • Erfurt/Bindersleben (EDDE)

    Taf: TAF EDDE 200500Z 2006/2106 26010KT CAVOK PROB40 TEMPO 2011/2020 27020G30KT 4000 TSRA SCT020CB BECMG 2017/2019 27005KT=

    Metar: nil